Aviation Digital Data Service (ADDS)

Output produced by METARs form (1553 UTC 20 March 2019)
found at http://www.aviationweather.gov/metar/data/
 
METAR text: DRRN 201500Z 02010KT 5000 DU NSC 41/M06 Q1004 BECMG 3500 DU
Conditions at: DRRN (NIAMEY (CIV/MIL), NE) observed 1500 UTC 20 March 2019
Temperature: 41.0°C (106°F)
Dewpoint: -6.0°C (21°F) [RH =  5%]
Pressure (altimeter): 29.65 inches Hg (1004.0 mb)
Winds: from the NNE (20 degrees) at 12 MPH (10 knots; 5.1 m/s)
Visibility: 3 miles ( 5 km)
Ceiling: at least 12,000 feet AGL
Clouds: sky clear below 12,000 feet AGL
Weather: DU  (widespread dust)

METAR text: DRRN 201400Z 36005KT 280V040 5000 DU NSC 42/M05 Q1005 BECMG 3500 DU
Conditions at: DRRN (NIAMEY (CIV/MIL), NE) observed 1400 UTC 20 March 2019
Temperature: 42.0°C (108°F)
Dewpoint: -5.0°C (23°F) [RH =  5%]
Pressure (altimeter): 29.68 inches Hg (1005.0 mb)
Winds: from the N (360 degrees) at 6 MPH (5 knots; 2.6 m/s)
Visibility: 3 miles ( 5 km)
Ceiling: at least 12,000 feet AGL
Clouds: sky clear below 12,000 feet AGL
Weather: DU  (widespread dust)

METAR text: DRRN 201300Z VRB03KT 6000 NSC 42/M05 Q1006 NOSIG
Conditions at: DRRN (NIAMEY (CIV/MIL), NE) observed 1300 UTC 20 March 2019
Temperature: 42.0°C (108°F)
Dewpoint: -5.0°C (23°F) [RH =  5%]
Pressure (altimeter): 29.70 inches Hg (1006.0 mb)
Winds: variable direction winds at 3 MPH (3 knots; 1.5 m/s)
Visibility: 4 miles ( 6 km)
Ceiling: at least 12,000 feet AGL
Clouds: sky clear below 12,000 feet AGL
Weather: no significant weather observed at this time

METAR text: DRRN 201200Z 05006KT 360V090 6000 NSC 40/M06 Q1008 NOSIG
Conditions at: DRRN (NIAMEY (CIV/MIL), NE) observed 1200 UTC 20 March 2019
Temperature: 40.0°C (104°F)
Dewpoint: -6.0°C (21°F) [RH =  5%]
Pressure (altimeter): 29.76 inches Hg (1008.0 mb)
Winds: from the NE (50 degrees) at 7 MPH (6 knots; 3.1 m/s)
Visibility: 4 miles ( 6 km)
Ceiling: at least 12,000 feet AGL
Clouds: sky clear below 12,000 feet AGL
Weather: no significant weather observed at this time

METAR text: DRRN 201100Z 03009KT 360V060 5000 DU NSC 39/M05 Q1008 BECMG 6000
Conditions at: DRRN (NIAMEY (CIV/MIL), NE) observed 1100 UTC 20 March 2019
Temperature: 39.0°C (102°F)
Dewpoint: -5.0°C (23°F) [RH =  6%]
Pressure (altimeter): 29.76 inches Hg (1008.0 mb)
Winds: from the NNE (30 degrees) at 10 MPH (9 knots; 4.6 m/s)
Visibility: 3 miles ( 5 km)
Ceiling: at least 12,000 feet AGL
Clouds: sky clear below 12,000 feet AGL
Weather: DU  (widespread dust)

METAR text: DRRN 201000Z 01013KT 5000 DU NSC 36/M05 Q1009 NOSIG
Conditions at: DRRN (NIAMEY (CIV/MIL), NE) observed 1000 UTC 20 March 2019
Temperature: 36.0°C (97°F)
Dewpoint: -5.0°C (23°F) [RH =  7%]
Pressure (altimeter): 29.79 inches Hg (1009.0 mb)
Winds: from the N (10 degrees) at 15 MPH (13 knots; 6.7 m/s)
Visibility: 3 miles ( 5 km)
Ceiling: at least 12,000 feet AGL
Clouds: sky clear below 12,000 feet AGL
Weather: DU  (widespread dust)

METAR text: DRRN 200900Z 02012KT 2800 DU NSC 35/M04 Q1009 BECMG 5000
Conditions at: DRRN (NIAMEY (CIV/MIL), NE) observed 0900 UTC 20 March 2019
Temperature: 35.0°C (95°F)
Dewpoint: -4.0°C (25°F) [RH =  8%]
Pressure (altimeter): 29.79 inches Hg (1009.0 mb)
Winds: from the NNE (20 degrees) at 14 MPH (12 knots; 6.2 m/s)
Visibility: 1.74 miles (2.80 km)
Ceiling: at least 12,000 feet AGL
Clouds: sky clear below 12,000 feet AGL
Weather: DU  (widespread dust)

METAR text: DRRN 200800Z 35008KT 2800 DU NSC 33/M03 Q1008 NOSIG
Conditions at: DRRN (NIAMEY (CIV/MIL), NE) observed 0800 UTC 20 March 2019
Temperature: 33.0°C (91°F)
Dewpoint: -3.0°C (27°F) [RH = 10%]
Pressure (altimeter): 29.76 inches Hg (1008.0 mb)
Winds: from the N (350 degrees) at 9 MPH (8 knots; 4.1 m/s)
Visibility: 1.74 miles (2.80 km)
Ceiling: at least 12,000 feet AGL
Clouds: sky clear below 12,000 feet AGL
Weather: DU  (widespread dust)

METAR text: DRRN 200700Z 34004KT 2000 DU NSC 31/M01 Q1007 TEMPO 1200
Conditions at: DRRN (NIAMEY (CIV/MIL), NE) observed 0700 UTC 20 March 2019
Temperature: 31.0°C (88°F)
Dewpoint: -1.0°C (30°F) [RH = 13%]
Pressure (altimeter): 29.73 inches Hg (1007.0 mb)
Winds: from the NNW (340 degrees) at 5 MPH (4 knots; 2.1 m/s)
Visibility: 1.24 miles (2.00 km)
Ceiling: at least 12,000 feet AGL
Clouds: sky clear below 12,000 feet AGL
Weather: DU  (widespread dust)

METAR text: DRRN 200600Z 32007KT 2500 DU NSC 31/M01 Q1007 TEMPO 1200
Conditions at: DRRN (NIAMEY (CIV/MIL), NE) observed 0600 UTC 20 March 2019
Temperature: 31.0°C (88°F)
Dewpoint: -1.0°C (30°F) [RH = 13%]
Pressure (altimeter): 29.73 inches Hg (1007.0 mb)
Winds: from the NW (320 degrees) at 8 MPH (7 knots; 3.6 m/s)
Visibility: 1.55 miles (2.49 km)
Ceiling: at least 12,000 feet AGL
Clouds: sky clear below 12,000 feet AGL
Weather: DU  (widespread dust)

METAR text: DRRN 200500Z 32005KT 2500 DU NSC 31/01 Q1006 NOSIG
Conditions at: DRRN (NIAMEY (CIV/MIL), NE) observed 0500 UTC 20 March 2019
Temperature: 31.0°C (88°F)
Dewpoint: 1.0°C (34°F) [RH = 15%]
Pressure (altimeter): 29.70 inches Hg (1006.0 mb)
Winds: from the NW (320 degrees) at 6 MPH (5 knots; 2.6 m/s)
Visibility: 1.55 miles (2.49 km)
Ceiling: at least 12,000 feet AGL
Clouds: sky clear below 12,000 feet AGL
Weather: DU  (widespread dust)

METAR text: DRRN 200400Z 30003KT 2500 DU NSC 31/04 Q1006 NOSIG
Conditions at: DRRN (NIAMEY (CIV/MIL), NE) observed 0400 UTC 20 March 2019
Temperature: 31.0°C (88°F)
Dewpoint: 4.0°C (39°F) [RH = 18%]
Pressure (altimeter): 29.70 inches Hg (1006.0 mb)
Winds: from the WNW (300 degrees) at 3 MPH (3 knots; 1.5 m/s)
Visibility: 1.55 miles (2.49 km)
Ceiling: at least 12,000 feet AGL
Clouds: sky clear below 12,000 feet AGL
Weather: DU  (widespread dust)

METAR text: DRRN 200300Z VRB01KT 2500 DU NSC 32/02 Q1006 NOSIG
Conditions at: DRRN (NIAMEY (CIV/MIL), NE) observed 0300 UTC 20 March 2019
Temperature: 32.0°C (90°F)
Dewpoint: 2.0°C (36°F) [RH = 15%]
Pressure (altimeter): 29.70 inches Hg (1006.0 mb)
Winds: variable direction winds at 1 MPH (1 knots; 0.5 m/s)
Visibility: 1.55 miles (2.49 km)
Ceiling: at least 12,000 feet AGL
Clouds: sky clear below 12,000 feet AGL
Weather: DU  (widespread dust)

METAR text: DRRN 200200Z 05004KT 2500 DU NSC 32/02 Q1007 NOSIG
Conditions at: DRRN (NIAMEY (CIV/MIL), NE) observed 0200 UTC 20 March 2019
Temperature: 32.0°C (90°F)
Dewpoint: 2.0°C (36°F) [RH = 15%]
Pressure (altimeter): 29.73 inches Hg (1007.0 mb)
Winds: from the NE (50 degrees) at 5 MPH (4 knots; 2.1 m/s)
Visibility: 1.55 miles (2.49 km)
Ceiling: at least 12,000 feet AGL
Clouds: sky clear below 12,000 feet AGL
Weather: DU  (widespread dust)

METAR text: DRRN 200100Z 23001KT 2800 DU NSC 33/02 Q1007 NOSIG
Conditions at: DRRN (NIAMEY (CIV/MIL), NE) observed 0100 UTC 20 March 2019
Temperature: 33.0°C (91°F)
Dewpoint: 2.0°C (36°F) [RH = 14%]
Pressure (altimeter): 29.73 inches Hg (1007.0 mb)
Winds: from the SW (230 degrees) at 1 MPH (1 knots; 0.5 m/s)
Visibility: 1.74 miles (2.80 km)
Ceiling: at least 12,000 feet AGL
Clouds: sky clear below 12,000 feet AGL
Weather: DU  (widespread dust)

METAR text: DRRN 200000Z VRB02KT 2800 DU NSC 33/05 Q1008 NOSIG
Conditions at: DRRN (NIAMEY (CIV/MIL), NE) observed 0000 UTC 20 March 2019
Temperature: 33.0°C (91°F)
Dewpoint: 5.0°C (41°F) [RH = 17%]
Pressure (altimeter): 29.76 inches Hg (1008.0 mb)
Winds: variable direction winds at 2 MPH (2 knots; 1.0 m/s)
Visibility: 1.74 miles (2.80 km)
Ceiling: at least 12,000 feet AGL
Clouds: sky clear below 12,000 feet AGL
Weather: DU  (widespread dust)

METAR text: DRRN 192300Z VRB02KT 2800 DU NSC 33/04 Q1008 NOSIG
Conditions at: DRRN (NIAMEY (CIV/MIL), NE) observed 2300 UTC 19 March 2019
Temperature: 33.0°C (91°F)
Dewpoint: 4.0°C (39°F) [RH = 16%]
Pressure (altimeter): 29.76 inches Hg (1008.0 mb)
Winds: variable direction winds at 2 MPH (2 knots; 1.0 m/s)
Visibility: 1.74 miles (2.80 km)
Ceiling: at least 12,000 feet AGL
Clouds: sky clear below 12,000 feet AGL
Weather: DU  (widespread dust)

METAR text: DRRN 192200Z 17001KT 2800 DU NSC 33/05 Q1008 NOSIG
Conditions at: DRRN (NIAMEY (CIV/MIL), NE) observed 2200 UTC 19 March 2019
Temperature: 33.0°C (91°F)
Dewpoint: 5.0°C (41°F) [RH = 17%]
Pressure (altimeter): 29.76 inches Hg (1008.0 mb)
Winds: from the S (170 degrees) at 1 MPH (1 knots; 0.5 m/s)
Visibility: 1.74 miles (2.80 km)
Ceiling: at least 12,000 feet AGL
Clouds: sky clear below 12,000 feet AGL
Weather: DU  (widespread dust)

METAR text: DRRN 192100Z VRB02KT 2800 DU NSC 34/02 Q1007 NOSIG
Conditions at: DRRN (NIAMEY (CIV/MIL), NE) observed 2100 UTC 19 March 2019
Temperature: 34.0°C (93°F)
Dewpoint: 2.0°C (36°F) [RH = 13%]
Pressure (altimeter): 29.73 inches Hg (1007.0 mb)
Winds: variable direction winds at 2 MPH (2 knots; 1.0 m/s)
Visibility: 1.74 miles (2.80 km)
Ceiling: at least 12,000 feet AGL
Clouds: sky clear below 12,000 feet AGL
Weather: DU  (widespread dust)

METAR text: DRRN 192000Z 06001KT 2800 DU NSC 36/M04 Q1007 NOSIG
Conditions at: DRRN (NIAMEY (CIV/MIL), NE) observed 2000 UTC 19 March 2019
Temperature: 36.0°C (97°F)
Dewpoint: -4.0°C (25°F) [RH =  8%]
Pressure (altimeter): 29.73 inches Hg (1007.0 mb)
Winds: from the ENE (60 degrees) at 1 MPH (1 knots; 0.5 m/s)
Visibility: 1.74 miles (2.80 km)
Ceiling: at least 12,000 feet AGL
Clouds: sky clear below 12,000 feet AGL
Weather: DU  (widespread dust)

METAR text: DRRN 191900Z 06003KT 2800 DU NSC 37/M04 Q1006 NOSIG
Conditions at: DRRN (NIAMEY (CIV/MIL), NE) observed 1900 UTC 19 March 2019
Temperature: 37.0°C (99°F)
Dewpoint: -4.0°C (25°F) [RH =  7%]
Pressure (altimeter): 29.70 inches Hg (1006.0 mb)
Winds: from the ENE (60 degrees) at 3 MPH (3 knots; 1.5 m/s)
Visibility: 1.74 miles (2.80 km)
Ceiling: at least 12,000 feet AGL
Clouds: sky clear below 12,000 feet AGL
Weather: DU  (widespread dust)

METAR text: DRRN 191800Z 00000KT 3200 DU NSC 39/M05 Q1005 BECMG 2800
Conditions at: DRRN (NIAMEY (CIV/MIL), NE) observed 1800 UTC 19 March 2019
Temperature: 39.0°C (102°F)
Dewpoint: -5.0°C (23°F) [RH =  6%]
Pressure (altimeter): 29.68 inches Hg (1005.0 mb)
Winds: calm
Visibility: 1.99 miles (3.20 km)
Ceiling: at least 12,000 feet AGL
Clouds: sky clear below 12,000 feet AGL
Weather: DU  (widespread dust)

METAR text: DRRN 191700Z 20004KT 170V230 3500 DU NSC 40/M06 Q1005 BECMG 2800
Conditions at: DRRN (NIAMEY (CIV/MIL), NE) observed 1700 UTC 19 March 2019
Temperature: 40.0°C (104°F)
Dewpoint: -6.0°C (21°F) [RH =  5%]
Pressure (altimeter): 29.68 inches Hg (1005.0 mb)
Winds: from the SSW (200 degrees) at 5 MPH (4 knots; 2.1 m/s)
Visibility: 2.17 miles (3.49 km)
Ceiling: at least 12,000 feet AGL
Clouds: sky clear below 12,000 feet AGL
Weather: DU  (widespread dust)

METAR text: DRRN 191600Z 25005KT 210V310 3800 DU NSC 41/M06 Q1005 NOSIG
Conditions at: DRRN (NIAMEY (CIV/MIL), NE) observed 1600 UTC 19 March 2019
Temperature: 41.0°C (106°F)
Dewpoint: -6.0°C (21°F) [RH =  5%]
Pressure (altimeter): 29.68 inches Hg (1005.0 mb)
Winds: from the WSW (250 degrees) at 6 MPH (5 knots; 2.6 m/s)
Visibility: 2.36 miles (3.80 km)
Ceiling: at least 12,000 feet AGL
Clouds: sky clear below 12,000 feet AGL
Weather: DU  (widespread dust)

METAR text: DRRN 191500Z VRB03KT 3800 DU NSC 42/M06 Q1005 NOSIG
Conditions at: DRRN (NIAMEY (CIV/MIL), NE) observed 1500 UTC 19 March 2019
Temperature: 42.0°C (108°F)
Dewpoint: -6.0°C (21°F) [RH =  5%]
Pressure (altimeter): 29.68 inches Hg (1005.0 mb)
Winds: variable direction winds at 3 MPH (3 knots; 1.5 m/s)
Visibility: 2.36 miles (3.80 km)
Ceiling: at least 12,000 feet AGL
Clouds: sky clear below 12,000 feet AGL
Weather: DU  (widespread dust)

METAR text: DRRN 191400Z 16006KT 110V200 3800 DU NSC 41/M06 Q1006 NOSIG
Conditions at: DRRN (NIAMEY (CIV/MIL), NE) observed 1400 UTC 19 March 2019
Temperature: 41.0°C (106°F)
Dewpoint: -6.0°C (21°F) [RH =  5%]
Pressure (altimeter): 29.70 inches Hg (1006.0 mb)
Winds: from the SSE (160 degrees) at 7 MPH (6 knots; 3.1 m/s)
Visibility: 2.36 miles (3.80 km)
Ceiling: at least 12,000 feet AGL
Clouds: sky clear below 12,000 feet AGL
Weather: DU  (widespread dust)

METAR text: DRRN 191300Z 13007KT 090V200 3000 DU NSC 41/M06 Q1007 NOSIG
Conditions at: DRRN (NIAMEY (CIV/MIL), NE) observed 1300 UTC 19 March 2019
Temperature: 41.0°C (106°F)
Dewpoint: -6.0°C (21°F) [RH =  5%]
Pressure (altimeter): 29.73 inches Hg (1007.0 mb)
Winds: from the SE (130 degrees) at 8 MPH (7 knots; 3.6 m/s)
Visibility: 1.86 miles (2.99 km)
Ceiling: at least 12,000 feet AGL
Clouds: sky clear below 12,000 feet AGL
Weather: DU  (widespread dust)

METAR text: DRRN 191200Z 16009KT 130V210 2800 DU NSC 40/M06 Q1008 BECMG 4000
Conditions at: DRRN (NIAMEY (CIV/MIL), NE) observed 1200 UTC 19 March 2019
Temperature: 40.0°C (104°F)
Dewpoint: -6.0°C (21°F) [RH =  5%]
Pressure (altimeter): 29.76 inches Hg (1008.0 mb)
Winds: from the SSE (160 degrees) at 10 MPH (9 knots; 4.6 m/s)
Visibility: 1.74 miles (2.80 km)
Ceiling: at least 12,000 feet AGL
Clouds: sky clear below 12,000 feet AGL
Weather: DU  (widespread dust)

METAR text: DRRN 191100Z 15010KT 110V190 2800 DU NSC 39/M05 Q1009 NOSIG
Conditions at: DRRN (NIAMEY (CIV/MIL), NE) observed 1100 UTC 19 March 2019
Temperature: 39.0°C (102°F)
Dewpoint: -5.0°C (23°F) [RH =  6%]
Pressure (altimeter): 29.79 inches Hg (1009.0 mb)
Winds: from the SSE (150 degrees) at 12 MPH (10 knots; 5.1 m/s)
Visibility: 1.74 miles (2.80 km)
Ceiling: at least 12,000 feet AGL
Clouds: sky clear below 12,000 feet AGL
Weather: DU  (widespread dust)

METAR text: DRRN 191000Z 14010KT 120V180 2800 DU NSC 37/M04 Q1009 NOSIG
Conditions at: DRRN (NIAMEY (CIV/MIL), NE) observed 1000 UTC 19 March 2019
Temperature: 37.0°C (99°F)
Dewpoint: -4.0°C (25°F) [RH =  7%]
Pressure (altimeter): 29.79 inches Hg (1009.0 mb)
Winds: from the SE (140 degrees) at 12 MPH (10 knots; 5.1 m/s)
Visibility: 1.74 miles (2.80 km)
Ceiling: at least 12,000 feet AGL
Clouds: sky clear below 12,000 feet AGL
Weather: DU  (widespread dust)

METAR text: DRRN 190900Z 13006KT 100V170 2800 DU NSC 35/M03 Q1009 BECMG 4000
Conditions at: DRRN (NIAMEY (CIV/MIL), NE) observed 0900 UTC 19 March 2019
Temperature: 35.0°C (95°F)
Dewpoint: -3.0°C (27°F) [RH =  9%]
Pressure (altimeter): 29.79 inches Hg (1009.0 mb)
Winds: from the SE (130 degrees) at 7 MPH (6 knots; 3.1 m/s)
Visibility: 1.74 miles (2.80 km)
Ceiling: at least 12,000 feet AGL
Clouds: sky clear below 12,000 feet AGL
Weather: DU  (widespread dust)

METAR text: DRRN 190800Z 09004KT 2500 DU NSC 31/M01 Q1009 NOSIG
Conditions at: DRRN (NIAMEY (CIV/MIL), NE) observed 0800 UTC 19 March 2019
Temperature: 31.0°C (88°F)
Dewpoint: -1.0°C (30°F) [RH = 13%]
Pressure (altimeter): 29.79 inches Hg (1009.0 mb)
Winds: from the E (90 degrees) at 5 MPH (4 knots; 2.1 m/s)
Visibility: 1.55 miles (2.49 km)
Ceiling: at least 12,000 feet AGL
Clouds: sky clear below 12,000 feet AGL
Weather: DU  (widespread dust)

METAR text: DRRN 190700Z 03002KT 3000 DU NSC 28/01 Q1009 TEMPO 2000
Conditions at: DRRN (NIAMEY (CIV/MIL), NE) observed 0700 UTC 19 March 2019
Temperature: 28.0°C (82°F)
Dewpoint: 1.0°C (34°F) [RH = 17%]
Pressure (altimeter): 29.79 inches Hg (1009.0 mb)
Winds: from the NNE (30 degrees) at 2 MPH (2 knots; 1.0 m/s)
Visibility: 1.86 miles (2.99 km)
Ceiling: at least 12,000 feet AGL
Clouds: sky clear below 12,000 feet AGL
Weather: DU  (widespread dust)

METAR text: DRRN 190600Z 06002KT 3000 DU NSC 27/02 Q1008 TEMPO 2500
Conditions at: DRRN (NIAMEY (CIV/MIL), NE) observed 0600 UTC 19 March 2019
Temperature: 27.0°C (81°F)
Dewpoint: 2.0°C (36°F) [RH = 20%]
Pressure (altimeter): 29.76 inches Hg (1008.0 mb)
Winds: from the ENE (60 degrees) at 2 MPH (2 knots; 1.0 m/s)
Visibility: 1.86 miles (2.99 km)
Ceiling: at least 12,000 feet AGL
Clouds: sky clear below 12,000 feet AGL
Weather: DU  (widespread dust)

METAR text: DRRN 190500Z VRB01KT 3500 DU NSC 28/00 Q1007 TEMPO 2500
Conditions at: DRRN (NIAMEY (CIV/MIL), NE) observed 0500 UTC 19 March 2019
Temperature: 28.0°C (82°F)
Dewpoint: 0.0°C (32°F) [RH = 16%]
Pressure (altimeter): 29.73 inches Hg (1007.0 mb)
Winds: variable direction winds at 1 MPH (1 knots; 0.5 m/s)
Visibility: 2.17 miles (3.49 km)
Ceiling: at least 12,000 feet AGL
Clouds: sky clear below 12,000 feet AGL
Weather: DU  (widespread dust)

Forecast for: DRRN (NIAMEY (CIV/MIL), NE)
Text: TAF DRRN 201100Z 2012/2118 03010KT 6000 NSC
Forecast period: 1200 UTC 20 March 2019 to 1800 UTC 21 March 2019
Forecast type: FROM: standard forecast or significant change
Winds: from the NNE (30 degrees) at 12 MPH (10 knots; 5.1 m/s)
Visibility: 4 miles (6 km)
Ceiling: unknown
Clouds: missing
Weather: no significant weather forecast for this period
Text: TEMPO 2018/2020 3500 DU
Forecast period: 1800 to 2000 UTC 20 March 2019
Forecast type: TEMPORARY: The following changes expected for less than half the time period
Visibility: 2.17 miles (3.49 km)
Ceiling: unknown
Clouds: missing
Weather: DU  (widespread dust)
Text: TEMPO 2105/2108 3500 DU
Forecast period: 0500 to 0800 UTC 21 March 2019
Forecast type: TEMPORARY: The following changes expected for less than half the time period
Visibility: 2.17 miles (3.49 km)
Ceiling: unknown
Clouds: missing
Weather: DU  (widespread dust)